createdAt,value
2019-04-26T00:04:10.211Z,11.00
2019-04-26T00:09:34.397Z,11.00
2019-04-26T00:14:45.569Z,10.90
2019-04-26T00:19:50.793Z,10.90
2019-04-26T00:24:59.043Z,10.90
2019-04-26T00:30:08.400Z,10.90
2019-04-26T00:35:16.429Z,10.90
2019-04-26T00:40:23.087Z,10.90
2019-04-26T00:45:42.006Z,10.80
2019-04-26T00:50:52.190Z,10.80
2019-04-26T00:55:59.316Z,10.70
2019-04-26T01:01:05.467Z,10.70
2019-04-26T01:06:15.991Z,10.70
2019-04-26T01:11:25.950Z,10.70
2019-04-26T01:16:45.501Z,10.70
2019-04-26T01:21:44.960Z,10.60
2019-04-26T01:27:03.907Z,10.60
2019-04-26T01:32:15.454Z,10.60
2019-04-26T01:37:22.483Z,10.60
2019-04-26T01:42:58.289Z,10.50
2019-04-26T01:48:05.649Z,10.50
2019-04-26T01:53:13.721Z,10.50
2019-04-26T01:58:23.394Z,10.50
2019-04-26T02:05:02.925Z,10.50
2019-04-26T02:08:39.292Z,10.40
2019-04-26T02:13:49.782Z,10.50
2019-04-26T02:19:00.373Z,10.40
2019-04-26T02:24:14.150Z,10.40
2019-04-26T02:29:25.271Z,10.40
2019-04-26T02:34:37.289Z,10.40
2019-04-26T02:39:41.892Z,10.40
2019-04-26T02:44:59.411Z,10.30
2019-04-26T02:50:09.171Z,10.30
2019-04-26T02:55:49.443Z,10.30
2019-04-26T03:01:19.014Z,10.30
2019-04-26T03:06:08.076Z,10.30
2019-04-26T03:11:19.077Z,10.20
2019-04-26T03:16:45.671Z,10.20
2019-04-26T03:22:01.196Z,10.20
2019-04-26T03:27:25.653Z,10.20
2019-04-26T03:33:12.338Z,10.20
2019-04-26T03:39:01.828Z,10.20
2019-04-26T03:44:45.871Z,10.20
2019-04-26T03:50:31.193Z,10.10
2019-04-26T03:55:43.694Z,10.00
2019-04-26T04:01:07.199Z,9.90
2019-04-26T04:06:16.338Z,9.90
2019-04-26T04:11:24.712Z,9.80
2019-04-26T04:17:01.467Z,9.70
2019-04-26T04:22:39.070Z,9.70
2019-04-26T04:28:03.433Z,9.70
2019-04-26T04:33:40.721Z,9.70
2019-04-26T04:39:12.339Z,9.60
2019-04-26T04:45:14.062Z,9.60
2019-04-26T04:50:46.870Z,9.60
2019-04-26T04:55:57.264Z,9.60
2019-04-26T05:01:42.860Z,9.60
2019-04-26T05:07:19.607Z,9.60
2019-04-26T05:12:46.571Z,9.50
2019-04-26T05:18:35.930Z,9.60
2019-04-26T05:24:07.740Z,9.60
2019-04-26T05:29:39.288Z,9.60
2019-04-26T05:34:53.034Z,9.60
2019-04-26T05:40:16.465Z,9.60
2019-04-26T05:45:53.906Z,9.60
2019-04-26T05:51:38.784Z,9.50
2019-04-26T05:57:25.286Z,9.60
2019-04-26T06:02:54.679Z,9.60
2019-04-26T06:08:33.384Z,9.50
2019-04-26T06:14:02.042Z,9.50
2019-04-26T06:19:48.970Z,9.50
2019-04-26T06:25:37.238Z,9.50
2019-04-26T06:30:50.982Z,9.60
2019-04-26T06:35:55.796Z,9.60
2019-04-26T06:41:40.886Z,9.70
2019-04-26T06:47:23.119Z,9.80
2019-04-26T06:52:27.334Z,9.90
2019-04-26T06:58:13.073Z,10.00
2019-04-26T07:03:34.269Z,10.10
2019-04-26T07:08:41.022Z,10.20
2019-04-26T07:14:21.679Z,10.30
2019-04-26T07:19:54.067Z,10.30
2019-04-26T07:25:40.283Z,10.40
2019-04-26T07:31:06.409Z,10.50
2019-04-26T07:42:51.539Z,10.70
2019-04-26T07:48:22.572Z,10.90
2019-04-26T07:53:43.287Z,11.00
2019-04-26T07:59:25.053Z,11.30
2019-04-26T08:04:40.660Z,11.40
2019-04-26T08:09:59.535Z,11.60
2019-04-26T08:15:20.876Z,11.70
2019-04-26T08:20:39.104Z,11.90
2019-04-26T08:25:45.051Z,12.00
2019-04-26T08:30:51.552Z,12.20
2019-04-26T08:35:55.817Z,12.30
2019-04-26T08:41:04.339Z,12.40
2019-04-26T08:46:16.474Z,12.60
2019-04-26T08:51:22.098Z,12.80
2019-04-26T08:56:43.147Z,13.00
2019-04-26T09:01:52.112Z,13.20
2019-04-26T09:07:00.716Z,13.40
2019-04-26T09:12:22.996Z,13.50
2019-04-26T09:17:23.292Z,13.60
2019-04-26T09:22:29.394Z,13.80
2019-04-26T09:27:38.613Z,14.00
2019-04-26T09:32:49.360Z,14.10
2019-04-26T09:37:58.247Z,14.40
2019-04-26T09:43:10.407Z,14.30
2019-04-26T09:48:29.902Z,14.30
2019-04-26T09:53:34.685Z,14.30
2019-04-26T09:58:39.017Z,14.50
2019-04-26T10:03:43.344Z,14.60
2019-04-26T10:08:48.052Z,14.70
2019-04-26T10:13:56.448Z,15.00
2019-04-26T10:19:03.294Z,15.30
2019-04-26T10:24:08.418Z,15.60
2019-04-26T10:29:13.142Z,15.90
2019-04-26T10:34:17.383Z,16.20
2019-04-26T10:39:22.121Z,16.40
2019-04-26T10:44:26.313Z,16.80
2019-04-26T10:49:44.952Z,17.40
2019-04-26T10:55:12.176Z,17.70
2019-04-26T11:00:34.192Z,18.00
2019-04-26T11:05:38.528Z,18.30
2019-04-26T11:10:48.733Z,18.50
2019-04-26T11:15:49.169Z,18.70
2019-04-26T11:20:53.610Z,18.90
2019-04-26T11:25:58.056Z,18.80
2019-04-26T11:31:03.837Z,18.90
2019-04-26T11:36:08.760Z,18.80
2019-04-26T11:41:13.136Z,18.60
2019-04-26T11:46:17.425Z,18.50
2019-04-26T11:51:23.502Z,18.30
2019-04-26T11:56:27.632Z,18.00
2019-04-26T12:01:31.949Z,18.20
2019-04-26T12:06:37.800Z,18.40
2019-04-26T12:11:49.312Z,18.80
2019-04-26T12:16:51.288Z,19.10
2019-04-26T12:21:54.136Z,19.00
2019-04-26T12:26:58.489Z,18.80
2019-04-26T12:32:02.807Z,18.40
2019-04-26T12:37:07.016Z,18.20
2019-04-26T12:42:12.288Z,18.50
2019-04-26T12:47:19.165Z,18.60
2019-04-26T12:52:23.375Z,18.70
2019-04-26T12:57:27.719Z,18.60
2019-04-26T13:02:31.982Z,18.50
2019-04-26T13:07:39.009Z,18.40
2019-04-26T13:12:59.717Z,18.80
2019-04-26T13:18:07.312Z,19.10
2019-04-26T13:23:10.038Z,19.10
2019-04-26T13:28:15.798Z,18.90
2019-04-26T13:33:23.208Z,19.30
2019-04-26T13:38:26.689Z,19.40
2019-04-26T13:43:30.897Z,19.20
2019-04-26T13:48:54.970Z,18.90
2019-04-26T13:53:59.162Z,18.80
2019-04-26T13:59:03.479Z,18.70
2019-04-26T14:04:09.009Z,18.40
2019-04-26T14:09:14.063Z,18.30
2019-04-26T14:14:18.286Z,18.30
2019-04-26T14:19:22.697Z,18.30
2019-04-26T14:24:31.260Z,18.50
2019-04-26T14:29:35.453Z,18.50
2019-04-26T14:34:40.456Z,18.40
2019-04-26T14:39:50.769Z,18.50
2019-04-26T14:44:51.870Z,19.40
2019-04-26T14:49:57.724Z,20.30
2019-04-26T14:55:02.206Z,20.40
2019-04-26T15:00:07.360Z,20.60
2019-04-26T15:05:13.222Z,21.10
2019-04-26T15:10:19.082Z,21.10
2019-04-26T15:15:26.962Z,20.80
2019-04-26T15:20:29.275Z,20.60
2019-04-26T15:25:33.580Z,20.70
2019-04-26T15:30:43.388Z,20.30
2019-04-26T15:35:44.653Z,19.90
2019-04-26T15:40:59.573Z,19.50
2019-04-26T15:46:14.536Z,19.40
2019-04-26T15:51:32.465Z,19.80
2019-04-26T15:56:36.768Z,20.60
2019-04-26T16:01:41.829Z,20.70
2019-04-26T16:06:47.000Z,20.70
2019-04-26T16:11:54.822Z,20.70
2019-04-26T16:16:58.408Z,20.60
2019-04-26T16:22:03.113Z,20.40
2019-04-26T16:27:07.425Z,20.30
2019-04-26T16:32:16.901Z,20.30
2019-04-26T16:37:23.792Z,20.40
2019-04-26T16:42:27.888Z,20.40
2019-04-26T16:47:35.258Z,20.10
2019-04-26T16:52:42.293Z,19.90
2019-04-26T16:57:54.906Z,19.60
2019-04-26T17:02:50.031Z,19.30
2019-04-26T17:07:58.804Z,19.00
2019-04-26T17:13:00.280Z,18.80
2019-04-26T17:18:04.723Z,19.00
2019-04-26T17:23:12.353Z,19.00
2019-04-26T17:28:18.017Z,19.00
2019-04-26T17:33:28.087Z,18.90
2019-04-26T17:38:28.974Z,18.80
2019-04-26T17:43:33.283Z,18.60
2019-04-26T17:48:37.561Z,18.50
2019-04-26T17:53:44.053Z,18.40
2019-04-26T17:58:52.451Z,18.20
2019-04-26T18:03:55.837Z,18.20
2019-04-26T18:08:59.801Z,18.00
2019-04-26T18:14:06.879Z,17.90
2019-04-26T18:19:14.713Z,17.80
2019-04-26T18:24:18.935Z,17.80
2019-04-26T18:29:28.840Z,17.80
2019-04-26T18:34:30.491Z,17.70
2019-04-26T18:39:35.543Z,17.60
2019-04-26T18:44:47.530Z,17.60
2019-04-26T18:49:45.769Z,17.50
2019-04-26T18:54:52.481Z,17.40
2019-04-26T18:59:57.218Z,17.40
2019-04-26T19:05:01.584Z,17.30
2019-04-26T19:10:07.383Z,17.20
2019-04-26T19:15:55.368Z,17.10
2019-04-26T19:21:42.302Z,17.00
2019-04-26T19:26:49.921Z,17.00
2019-04-26T19:32:13.877Z,16.90
2019-04-26T19:37:23.385Z,16.80
2019-04-26T19:42:43.202Z,16.70
2019-04-26T19:48:07.126Z,16.70
2019-04-26T19:53:51.677Z,16.50
2019-04-26T19:59:00.701Z,16.40
2019-04-26T20:10:04.964Z,16.10
2019-04-26T20:20:43.548Z,15.80
2019-04-26T20:26:22.653Z,15.70
2019-04-26T20:37:10.996Z,15.50
2019-04-26T20:42:23.189Z,15.30
2019-04-26T20:47:55.794Z,15.20
2019-04-26T20:53:03.743Z,15.00
2019-04-26T20:58:11.668Z,14.80
2019-04-26T21:03:23.715Z,14.70
2019-04-26T21:08:25.801Z,14.50
2019-04-26T21:13:33.208Z,14.30
2019-04-26T21:18:39.967Z,14.20
2019-04-26T21:23:45.109Z,14.10
2019-04-26T21:29:15.484Z,14.00
2019-04-26T21:34:16.871Z,13.90
2019-04-26T21:39:27.260Z,13.80
2019-04-26T21:44:31.684Z,13.70
2019-04-26T21:49:38.077Z,13.70
2019-04-26T21:54:43.678Z,13.60
2019-04-26T21:59:49.645Z,13.50
2019-04-26T22:04:54.607Z,13.40
2019-04-26T22:10:10.675Z,13.30
2019-04-26T22:15:17.997Z,13.30
2019-04-26T22:20:27.106Z,13.30
2019-04-26T22:25:36.085Z,13.20
2019-04-26T22:30:43.442Z,13.10
2019-04-26T22:35:50.523Z,13.10
2019-04-26T22:40:58.104Z,13.10
2019-04-26T22:46:05.018Z,13.00
2019-04-26T22:51:14.025Z,13.00
2019-04-26T22:56:26.168Z,12.90
2019-04-26T23:01:33.039Z,12.80
2019-04-26T23:06:51.391Z,12.70
2019-04-26T23:13:48.780Z,12.70
2019-04-26T23:17:41.285Z,12.60
2019-04-26T23:22:45.985Z,12.50
2019-04-26T23:27:56.718Z,12.40
2019-04-26T23:33:04.261Z,12.40
2019-04-26T23:38:13.551Z,12.30
2019-04-26T23:43:22.519Z,12.30
2019-04-26T23:48:29.161Z,12.20
2019-04-26T23:53:35.893Z,12.20
2019-04-26T23:58:44.046Z,12.20
